createdAt,value
2023-03-07T00:02:26.573Z,4.80
2023-03-07T00:05:28.248Z,4.40
2023-03-07T00:08:30.075Z,4.60
2023-03-07T00:11:31.626Z,4.70
2023-03-07T00:14:33.475Z,4.60
2023-03-07T00:17:38.944Z,4.50
2023-03-07T00:20:40.471Z,4.80
2023-03-07T00:23:43.768Z,4.40
2023-03-07T00:26:45.607Z,4.80
2023-03-07T00:29:48.677Z,6.50
2023-03-07T00:32:50.426Z,4.50
2023-03-07T00:36:00.457Z,4.50
2023-03-07T00:39:02.128Z,4.50
2023-03-07T00:42:03.804Z,4.80
2023-03-07T00:45:05.790Z,4.60
2023-03-07T00:48:07.443Z,4.60
2023-03-07T00:51:11.135Z,4.10
2023-03-07T00:54:12.694Z,4.70
2023-03-07T00:57:14.223Z,4.60
2023-03-07T01:00:15.833Z,4.70
2023-03-07T01:03:17.800Z,5.00
2023-03-07T01:06:21.290Z,4.70
2023-03-07T01:09:23.649Z,4.90
2023-03-07T01:12:26.720Z,4.90
2023-03-07T01:15:28.259Z,4.60
2023-03-07T01:18:29.798Z,4.70
2023-03-07T01:21:37.693Z,5.00
2023-03-07T01:24:39.505Z,5.10
2023-03-07T01:27:41.105Z,4.60
2023-03-07T01:30:42.673Z,4.70
2023-03-07T01:33:44.275Z,4.60
2023-03-07T01:36:45.871Z,4.60
2023-03-07T01:44:12.183Z,4.80
2023-03-07T01:47:13.730Z,5.10
2023-03-07T01:50:17.625Z,4.60
2023-03-07T01:53:19.385Z,4.90
2023-03-07T01:56:22.315Z,4.90
2023-03-07T01:59:31.456Z,4.80
2023-03-07T02:02:34.836Z,4.90
2023-03-07T02:05:59.485Z,4.80
2023-03-07T02:09:03.586Z,5.00
2023-03-07T02:12:05.313Z,5.60
2023-03-07T02:15:09.550Z,4.90
2023-03-07T02:18:16.053Z,4.80
2023-03-07T02:21:54.657Z,4.70
2023-03-07T02:25:17.284Z,4.90
2023-03-07T02:28:19.129Z,4.80
2023-03-07T02:31:21.234Z,4.90
2023-03-07T02:34:28.372Z,4.60
2023-03-07T02:37:33.743Z,4.60
2023-03-07T02:40:35.631Z,5.20
2023-03-07T02:43:37.256Z,4.70
2023-03-07T02:46:38.885Z,5.00
2023-03-07T02:49:40.610Z,4.80
2023-03-07T02:52:42.892Z,5.10
2023-03-07T02:55:44.530Z,4.90
2023-03-07T02:58:46.067Z,4.30
2023-03-07T03:01:47.704Z,4.70
2023-03-07T03:04:49.325Z,4.90
2023-03-07T03:07:51.166Z,4.70
2023-03-07T03:10:54.347Z,4.70
2023-03-07T03:13:55.910Z,4.70
2023-03-07T03:16:57.465Z,4.80
2023-03-07T03:19:59.125Z,4.60
2023-03-07T03:23:00.675Z,3.20
2023-03-07T03:26:07.485Z,4.70
2023-03-07T03:29:09.717Z,5.70
2023-03-07T03:32:11.481Z,4.50
2023-03-07T03:35:13.210Z,4.70
2023-03-07T03:38:14.752Z,6.20
2023-03-07T03:41:16.292Z,4.70
2023-03-07T03:44:18.130Z,4.40
2023-03-07T03:47:19.702Z,4.50
2023-03-07T03:50:21.275Z,4.50
2023-03-07T03:53:22.911Z,5.00
2023-03-07T03:56:25.838Z,4.60
2023-03-07T03:59:27.929Z,5.60
2023-03-07T04:02:30.793Z,4.80
2023-03-07T04:05:35.390Z,4.50
2023-03-07T04:08:38.354Z,4.90
2023-03-07T04:11:39.954Z,4.80
2023-03-07T04:14:41.665Z,4.80
2023-03-07T04:17:43.239Z,4.70
2023-03-07T04:20:45.738Z,4.60
2023-03-07T04:23:49.504Z,4.90
2023-03-07T04:26:51.125Z,4.80
2023-03-07T04:29:52.645Z,4.90
2023-03-07T04:32:54.322Z,4.70
2023-03-07T04:35:55.894Z,4.80
2023-03-07T04:38:57.867Z,5.20
2023-03-07T04:45:23.845Z,4.80
2023-03-07T04:48:25.511Z,4.60
2023-03-07T04:51:27.201Z,4.80
2023-03-07T04:54:28.899Z,4.80
2023-03-07T04:57:30.661Z,4.70
2023-03-07T05:00:32.504Z,5.00
2023-03-07T05:03:34.952Z,4.70
2023-03-07T05:06:36.573Z,4.70
2023-03-07T05:09:38.150Z,5.10
2023-03-07T05:12:39.721Z,4.70
2023-03-07T05:15:41.346Z,4.90
2023-03-07T05:18:42.935Z,4.60
2023-03-07T05:21:44.580Z,4.80
2023-03-07T05:24:46.209Z,5.00
2023-03-07T05:27:48.456Z,4.80
2023-03-07T05:30:50.158Z,4.80
2023-03-07T05:33:51.812Z,4.50
2023-03-07T05:36:53.528Z,4.60
2023-03-07T05:39:55.111Z,4.60
2023-03-07T05:42:56.760Z,4.60
2023-03-07T05:45:58.400Z,4.60
2023-03-07T05:49:00.152Z,4.60
2023-03-07T05:52:01.787Z,4.60
2023-03-07T05:55:04.365Z,4.70
2023-03-07T05:58:06.061Z,4.60
2023-03-07T06:01:07.580Z,4.20
2023-03-07T06:04:09.744Z,4.50
2023-03-07T06:07:11.328Z,4.70
2023-03-07T06:10:13.654Z,4.80
2023-03-07T06:13:18.401Z,4.70
2023-03-07T06:16:20.029Z,4.50
2023-03-07T06:19:21.952Z,4.10
2023-03-07T06:22:23.836Z,4.80
2023-03-07T06:25:25.361Z,5.00
2023-03-07T06:28:27.767Z,4.90
2023-03-07T06:31:29.383Z,4.40
2023-03-07T06:34:30.980Z,4.70
2023-03-07T06:37:32.606Z,4.60
2023-03-07T06:40:34.232Z,4.30
2023-03-07T06:43:35.859Z,4.50
2023-03-07T06:46:37.554Z,6.20
2023-03-07T06:49:39.105Z,4.60
2023-03-07T06:52:40.951Z,4.60
2023-03-07T06:55:42.523Z,4.70
2023-03-07T06:58:44.183Z,4.90
2023-03-07T07:01:45.833Z,4.60
2023-03-07T07:04:47.539Z,4.70
2023-03-07T07:07:49.135Z,6.80
2023-03-07T07:10:50.895Z,4.70
2023-03-07T07:13:52.559Z,4.60
2023-03-07T07:16:54.109Z,4.50
2023-03-07T07:19:55.701Z,4.90
2023-03-07T07:22:57.272Z,4.60
2023-03-07T07:25:58.969Z,4.80
2023-03-07T07:29:00.612Z,4.80
2023-03-07T07:32:02.339Z,5.00
2023-03-07T07:35:04.387Z,4.90
2023-03-07T07:38:05.976Z,4.90
2023-03-07T07:41:07.533Z,4.80
2023-03-07T07:44:09.099Z,4.90
2023-03-07T07:47:10.704Z,4.90
2023-03-07T07:50:14.091Z,4.50
2023-03-07T07:53:18.801Z,4.90
2023-03-07T07:56:20.388Z,4.70
2023-03-07T07:59:21.935Z,5.00
2023-03-07T08:02:23.891Z,5.50
2023-03-07T08:05:25.623Z,4.90
2023-03-07T08:08:27.188Z,4.80
2023-03-07T08:11:28.850Z,5.00
2023-03-07T08:14:30.489Z,5.20
2023-03-07T08:17:32.057Z,4.90
2023-03-07T08:20:33.832Z,4.80
2023-03-07T08:23:36.918Z,4.80
2023-03-07T08:26:38.627Z,5.00
2023-03-07T08:29:40.185Z,5.00
2023-03-07T08:32:41.835Z,4.90
2023-03-07T08:35:43.437Z,4.80
2023-03-07T08:38:54.167Z,4.90
2023-03-07T08:41:56.772Z,5.30
2023-03-07T08:44:58.392Z,4.90
2023-03-07T08:48:00.004Z,5.20
2023-03-07T08:51:10.158Z,5.00
2023-03-07T08:54:11.762Z,4.90
2023-03-07T08:57:13.295Z,4.70
2023-03-07T09:00:15.327Z,5.00
2023-03-07T09:03:16.912Z,4.90
2023-03-07T09:06:20.760Z,5.00
2023-03-07T09:09:22.652Z,4.90
2023-03-07T09:12:25.068Z,5.10
2023-03-07T09:15:27.133Z,4.60
2023-03-07T09:18:30.278Z,4.80
2023-03-07T09:21:33.269Z,4.70
2023-03-07T09:24:34.805Z,4.80
2023-03-07T09:27:36.625Z,4.60
2023-03-07T09:30:38.394Z,4.40
2023-03-07T09:33:41.202Z,4.40
2023-03-07T09:36:42.811Z,4.20
2023-03-07T09:39:44.871Z,4.60
2023-03-07T09:42:54.058Z,4.50
2023-03-07T09:46:09.496Z,4.40
2023-03-07T09:49:29.524Z,4.40
2023-03-07T09:52:37.536Z,4.50
2023-03-07T09:55:39.566Z,4.30
2023-03-07T09:58:45.992Z,4.70
2023-03-07T10:01:50.062Z,4.30
2023-03-07T10:05:01.140Z,4.40
2023-03-07T10:08:03.588Z,4.50
2023-03-07T10:11:42.900Z,4.30
2023-03-07T10:14:54.395Z,4.20
2023-03-07T10:18:19.198Z,4.20
2023-03-07T10:21:39.109Z,4.40
2023-03-07T10:25:09.773Z,4.20
2023-03-07T10:28:31.318Z,4.30
2023-03-07T10:31:36.183Z,4.20
2023-03-07T10:34:39.563Z,4.40
2023-03-07T10:37:50.353Z,4.40
2023-03-07T10:40:57.362Z,4.30
2023-03-07T10:43:59.059Z,4.40
2023-03-07T10:47:00.906Z,4.30
2023-03-07T10:50:29.820Z,4.40
2023-03-07T10:53:36.378Z,4.30
2023-03-07T10:56:38.165Z,4.50
2023-03-07T10:59:45.594Z,4.30
2023-03-07T11:02:47.244Z,3.90
2023-03-07T11:05:48.974Z,4.10
2023-03-07T11:08:50.570Z,4.40
2023-03-07T11:12:00.618Z,4.40
2023-03-07T11:15:18.521Z,4.30
2023-03-07T11:18:38.788Z,4.20
2023-03-07T11:21:40.375Z,4.00
2023-03-07T11:24:49.933Z,4.40
2023-03-07T11:27:55.296Z,4.10
2023-03-07T11:31:04.845Z,4.60
2023-03-07T11:34:45.611Z,4.20
2023-03-07T11:38:13.180Z,4.40
2023-03-07T11:41:34.832Z,4.30
2023-03-07T11:45:03.482Z,4.10
2023-03-07T11:48:24.021Z,4.10
2023-03-07T11:51:45.842Z,4.30
2023-03-07T11:55:18.051Z,4.00
2023-03-07T11:58:35.802Z,4.20
2023-03-07T12:01:52.775Z,4.20
2023-03-07T12:05:09.530Z,4.20
2023-03-07T12:08:27.338Z,4.10
2023-03-07T12:11:45.842Z,3.90
2023-03-07T12:15:25.391Z,4.10
2023-03-07T12:18:37.908Z,4.40
2023-03-07T12:21:56.745Z,4.00
2023-03-07T12:25:20.781Z,4.20
2023-03-07T12:28:24.684Z,4.20
2023-03-07T12:31:36.824Z,4.20
2023-03-07T12:34:42.545Z,4.30
2023-03-07T12:38:08.814Z,4.30
2023-03-07T12:41:39.421Z,4.40
2023-03-07T12:45:03.725Z,4.30
2023-03-07T12:48:18.815Z,4.30
2023-03-07T12:51:26.900Z,4.30
2023-03-07T12:54:30.135Z,4.30
2023-03-07T12:57:40.316Z,4.40
2023-03-07T13:00:58.019Z,4.40
2023-03-07T13:04:21.476Z,6.20
2023-03-07T13:07:32.349Z,4.20
2023-03-07T13:10:34.850Z,4.30
2023-03-07T13:13:43.175Z,4.10
2023-03-07T13:16:46.423Z,4.00
2023-03-07T13:19:54.099Z,4.40
2023-03-07T13:22:58.513Z,4.10
2023-03-07T13:26:02.269Z,4.00
2023-03-07T13:29:04.284Z,4.10
2023-03-07T13:32:44.472Z,4.10
2023-03-07T13:35:53.765Z,4.10
2023-03-07T13:38:55.382Z,4.20
2023-03-07T13:41:57.164Z,4.20
2023-03-07T13:44:58.867Z,4.30
2023-03-07T13:48:00.468Z,4.50
2023-03-07T13:51:02.072Z,4.20
2023-03-07T13:54:05.997Z,4.40
2023-03-07T13:57:18.774Z,4.40
2023-03-07T14:00:34.060Z,4.20
2023-03-07T14:03:53.335Z,5.60
2023-03-07T14:07:21.199Z,4.20
2023-03-07T14:10:30.684Z,4.40
2023-03-07T14:14:22.616Z,4.50
2023-03-07T14:18:01.739Z,4.30
2023-03-07T14:21:20.075Z,4.40
2023-03-07T14:24:49.190Z,4.30
2023-03-07T14:28:00.959Z,4.10
2023-03-07T14:31:07.036Z,4.30
2023-03-07T14:34:25.236Z,4.40
2023-03-07T14:37:32.738Z,4.00
2023-03-07T14:41:11.101Z,4.10
2023-03-07T14:44:29.861Z,4.10
2023-03-07T14:47:47.087Z,4.10
2023-03-07T14:50:48.686Z,3.80
2023-03-07T14:53:50.377Z,3.90
2023-03-07T14:56:53.925Z,3.90
2023-03-07T15:00:11.307Z,4.20
2023-03-07T15:03:14.279Z,3.80
2023-03-07T15:06:20.041Z,3.60
2023-03-07T15:09:22.230Z,4.00
2023-03-07T15:12:27.713Z,4.20
2023-03-07T15:15:31.402Z,4.00
2023-03-07T15:18:40.887Z,4.00
2023-03-07T15:21:55.801Z,4.40
2023-03-07T15:24:57.843Z,4.30
2023-03-07T15:28:05.769Z,6.10
2023-03-07T15:31:08.959Z,4.10
2023-03-07T15:34:25.041Z,4.10
2023-03-07T15:37:29.525Z,4.00
2023-03-07T15:40:34.084Z,4.10
2023-03-07T15:43:35.852Z,4.10
2023-03-07T15:46:44.175Z,4.20
2023-03-07T15:49:54.330Z,3.80
2023-03-07T15:53:07.238Z,3.90
2023-03-07T15:56:36.058Z,3.90
2023-03-07T15:59:53.865Z,3.80
2023-03-07T16:03:16.409Z,3.60
2023-03-07T16:06:46.678Z,4.00
2023-03-07T16:09:48.457Z,3.70
2023-03-07T16:12:50.418Z,3.90
2023-03-07T16:16:00.942Z,3.50
2023-03-07T16:19:03.710Z,3.70
2023-03-07T16:22:09.701Z,5.30
2023-03-07T16:25:11.789Z,3.70
2023-03-07T16:28:13.916Z,3.50
2023-03-07T16:31:17.275Z,3.50
2023-03-07T16:34:21.384Z,3.40
2023-03-07T16:37:22.990Z,3.70
2023-03-07T16:40:26.114Z,3.30
2023-03-07T16:43:36.868Z,3.30
2023-03-07T16:46:38.375Z,3.10
2023-03-07T16:49:40.143Z,3.30
2023-03-07T16:52:43.252Z,3.30
2023-03-07T16:55:45.760Z,3.10
2023-03-07T16:58:47.387Z,3.10
2023-03-07T17:01:51.619Z,3.20
2023-03-07T17:04:53.737Z,3.10
2023-03-07T17:07:56.930Z,3.30
2023-03-07T17:10:58.910Z,3.00
2023-03-07T17:14:04.864Z,4.50
2023-03-07T17:17:07.352Z,3.20
2023-03-07T17:20:14.241Z,3.10
2023-03-07T17:23:15.830Z,2.80
2023-03-07T17:26:33.023Z,3.00
2023-03-07T17:29:42.262Z,2.90
2023-03-07T17:32:43.837Z,2.90
2023-03-07T17:35:45.475Z,2.70
2023-03-07T17:38:47.825Z,2.50
2023-03-07T17:41:50.549Z,2.90
2023-03-07T17:44:52.156Z,3.00
2023-03-07T17:47:54.684Z,2.80
2023-03-07T17:50:56.230Z,2.70
2023-03-07T17:53:58.215Z,3.00
2023-03-07T17:56:59.956Z,3.00
2023-03-07T18:00:01.668Z,3.20
2023-03-07T18:03:03.915Z,2.90
2023-03-07T18:06:05.776Z,2.50
2023-03-07T18:09:07.355Z,2.40
2023-03-07T18:12:09.429Z,3.00
2023-03-07T18:15:16.908Z,2.70
2023-03-07T18:18:18.495Z,2.40
2023-03-07T18:21:22.195Z,2.50
2023-03-07T18:24:27.007Z,2.90
2023-03-07T18:27:28.571Z,2.60
2023-03-07T18:30:30.133Z,2.50
2023-03-07T18:33:32.614Z,2.60
2023-03-07T18:36:34.167Z,3.60
2023-03-07T18:39:36.121Z,2.80
2023-03-07T18:42:39.054Z,2.40
2023-03-07T18:45:44.497Z,2.50
2023-03-07T18:48:46.270Z,2.60
2023-03-07T18:51:48.426Z,2.90
2023-03-07T18:54:50.046Z,2.60
2023-03-07T18:57:51.674Z,2.90
2023-03-07T19:00:53.650Z,2.60
2023-03-07T19:03:57.477Z,2.50
2023-03-07T19:07:00.592Z,4.10
2023-03-07T19:10:02.481Z,2.40
2023-03-07T19:13:27.108Z,2.60
2023-03-07T19:16:29.000Z,2.80
2023-03-07T19:19:30.634Z,2.60
2023-03-07T19:22:33.353Z,2.60
2023-03-07T19:25:35.457Z,2.40
2023-03-07T19:28:37.158Z,3.70
2023-03-07T19:31:39.226Z,2.70
2023-03-07T19:34:40.838Z,2.50
2023-03-07T19:37:42.408Z,2.90
2023-03-07T19:40:48.019Z,2.60
2023-03-07T19:43:50.153Z,2.70
2023-03-07T19:46:51.766Z,2.50
2023-03-07T19:49:53.315Z,2.60
2023-03-07T19:52:57.317Z,2.60
2023-03-07T19:56:11.666Z,2.80
2023-03-07T19:59:13.299Z,2.60
2023-03-07T20:02:14.943Z,2.50
2023-03-07T20:05:16.810Z,2.20
2023-03-07T20:08:18.476Z,2.60
2023-03-07T20:11:27.581Z,2.50
2023-03-07T20:19:20.534Z,2.90
2023-03-07T20:30:44.726Z,4.40
2023-03-07T20:34:18.216Z,0.90
2023-03-07T20:45:21.752Z,1.80
2023-03-07T20:48:52.992Z,2.70
2023-03-07T20:53:01.906Z,2.60
2023-03-07T20:56:05.606Z,2.60
2023-03-07T20:59:09.150Z,2.60
2023-03-07T21:02:11.693Z,2.10
2023-03-07T21:05:13.656Z,2.30
2023-03-07T21:08:16.415Z,2.50
2023-03-07T21:11:20.339Z,2.60
2023-03-07T21:14:22.265Z,2.30
2023-03-07T21:17:24.005Z,2.00
2023-03-07T21:20:25.697Z,2.20
2023-03-07T21:23:27.947Z,2.40
2023-03-07T21:26:32.018Z,2.50
2023-03-07T21:29:33.675Z,2.40
2023-03-07T21:32:35.262Z,2.50
2023-03-07T21:35:40.162Z,2.30
2023-03-07T21:38:43.256Z,2.40
2023-03-07T21:41:44.999Z,2.50
2023-03-07T21:44:46.588Z,2.60
2023-03-07T21:47:53.102Z,2.50
2023-03-07T21:50:55.357Z,2.60
2023-03-07T21:53:56.971Z,2.40
2023-03-07T21:56:58.627Z,2.40
2023-03-07T22:00:00.182Z,2.40
2023-03-07T22:03:01.792Z,2.40
2023-03-07T22:06:08.516Z,2.00
2023-03-07T22:09:10.534Z,2.50
2023-03-07T22:12:12.086Z,2.70
2023-03-07T22:15:13.897Z,2.60
2023-03-07T22:18:17.418Z,2.80
2023-03-07T22:21:20.968Z,2.60
2023-03-07T22:24:22.589Z,2.90
2023-03-07T22:27:24.176Z,2.20
2023-03-07T22:30:25.755Z,2.50
2023-03-07T22:33:27.342Z,2.40
2023-03-07T22:36:29.030Z,2.70
2023-03-07T22:39:30.645Z,2.40
2023-03-07T22:42:32.242Z,2.70
2023-03-07T22:45:34.124Z,2.70
2023-03-07T22:48:36.192Z,3.20
2023-03-07T22:51:38.369Z,2.10
2023-03-07T22:54:41.199Z,2.40
2023-03-07T22:57:42.738Z,2.50
2023-03-07T23:00:44.370Z,2.60
2023-03-07T23:03:46.893Z,2.40
2023-03-07T23:06:48.569Z,2.30
2023-03-07T23:09:50.118Z,2.40
2023-03-07T23:12:51.842Z,2.70
2023-03-07T23:15:53.495Z,2.50
2023-03-07T23:18:57.410Z,2.30
2023-03-07T23:21:59.057Z,2.40
2023-03-07T23:25:00.594Z,2.30
2023-03-07T23:28:02.258Z,2.60
2023-03-07T23:31:04.184Z,2.40
2023-03-07T23:34:09.181Z,2.50
2023-03-07T23:37:10.734Z,2.20
2023-03-07T23:40:12.670Z,2.40
2023-03-07T23:43:14.497Z,2.50
2023-03-07T23:46:16.201Z,2.30
2023-03-07T23:49:17.774Z,2.40
2023-03-07T23:52:19.534Z,2.00
2023-03-07T23:55:22.346Z,2.60
2023-03-07T23:58:23.973Z,2.50
